sensor_id;sensor_type;location;lat;lon;timestamp;temperature;humidity
73688;SHT30;62257;48.376;-4.378;2022-12-16T00:02:09;3.87;71.49
73688;SHT30;62257;48.376;-4.378;2022-12-16T00:04:34;3.83;71.16
73688;SHT30;62257;48.376;-4.378;2022-12-16T00:07:00;3.85;70.77
73688;SHT30;62257;48.376;-4.378;2022-12-16T00:09:25;3.83;70.86
73688;SHT30;62257;48.376;-4.378;2022-12-16T00:11:50;3.82;70.10
73688;SHT30;62257;48.376;-4.378;2022-12-16T00:14:16;3.80;69.18
73688;SHT30;62257;48.376;-4.378;2022-12-16T00:16:41;3.82;68.79
73688;SHT30;62257;48.376;-4.378;2022-12-16T00:19:07;3.85;67.81
73688;SHT30;62257;48.376;-4.378;2022-12-16T00:21:32;3.86;67.82
73688;SHT30;62257;48.376;-4.378;2022-12-16T00:23:57;3.87;66.78
73688;SHT30;62257;48.376;-4.378;2022-12-16T00:26:23;3.87;66.52
73688;SHT30;62257;48.376;-4.378;2022-12-16T00:28:49;3.86;66.04
73688;SHT30;62257;48.376;-4.378;2022-12-16T00:31:14;3.87;66.09
73688;SHT30;62257;48.376;-4.378;2022-12-16T00:33:40;3.87;65.75
73688;SHT30;62257;48.376;-4.378;2022-12-16T00:36:06;3.87;65.56
73688;SHT30;62257;48.376;-4.378;2022-12-16T00:38:31;3.85;65.55
73688;SHT30;62257;48.376;-4.378;2022-12-16T00:40:57;3.82;65.27
73688;SHT30;62257;48.376;-4.378;2022-12-16T00:43:22;3.85;65.47
73688;SHT30;62257;48.376;-4.378;2022-12-16T00:45:48;3.86;65.29
73688;SHT30;62257;48.376;-4.378;2022-12-16T00:48:14;3.82;65.06
73688;SHT30;62257;48.376;-4.378;2022-12-16T00:50:40;3.79;65.05
73688;SHT30;62257;48.376;-4.378;2022-12-16T00:53:07;3.79;65.35
73688;SHT30;62257;48.376;-4.378;2022-12-16T00:55:33;3.76;65.55
73688;SHT30;62257;48.376;-4.378;2022-12-16T00:57:58;3.73;65.74
73688;SHT30;62257;48.376;-4.378;2022-12-16T01:00:24;3.70;65.85
73688;SHT30;62257;48.376;-4.378;2022-12-16T01:02:50;3.69;65.74
73688;SHT30;62257;48.376;-4.378;2022-12-16T01:05:17;3.65;65.77
73688;SHT30;62257;48.376;-4.378;2022-12-16T01:07:45;3.63;66.21
73688;SHT30;62257;48.376;-4.378;2022-12-16T01:10:11;3.58;66.64
73688;SHT30;62257;48.376;-4.378;2022-12-16T01:12:37;3.60;67.48
73688;SHT30;62257;48.376;-4.378;2022-12-16T01:15:04;3.55;68.73
73688;SHT30;62257;48.376;-4.378;2022-12-16T01:17:29;3.52;69.94
73688;SHT30;62257;48.376;-4.378;2022-12-16T01:19:55;3.46;70.79
73688;SHT30;62257;48.376;-4.378;2022-12-16T01:22:21;3.38;70.59
73688;SHT30;62257;48.376;-4.378;2022-12-16T01:24:47;3.36;70.30
73688;SHT30;62257;48.376;-4.378;2022-12-16T01:27:13;3.32;70.10
73688;SHT30;62257;48.376;-4.378;2022-12-16T01:29:39;3.30;69.74
73688;SHT30;62257;48.376;-4.378;2022-12-16T01:32:05;3.30;69.26
73688;SHT30;62257;48.376;-4.378;2022-12-16T01:34:31;3.31;69.17
73688;SHT30;62257;48.376;-4.378;2022-12-16T01:36:56;3.30;68.69
73688;SHT30;62257;48.376;-4.378;2022-12-16T01:39:21;3.28;68.86
73688;SHT30;62257;48.376;-4.378;2022-12-16T01:41:47;3.30;69.38
73688;SHT30;62257;48.376;-4.378;2022-12-16T01:44:22;3.25;69.36
73688;SHT30;62257;48.376;-4.378;2022-12-16T01:46:55;3.21;69.80
73688;SHT30;62257;48.376;-4.378;2022-12-16T01:52:10;3.08;70.43
73688;SHT30;62257;48.376;-4.378;2022-12-16T01:54:42;3.04;70.82
73688;SHT30;62257;48.376;-4.378;2022-12-16T01:57:11;2.94;70.95
73688;SHT30;62257;48.376;-4.378;2022-12-16T01:59:40;2.92;71.17
73688;SHT30;62257;48.376;-4.378;2022-12-16T02:02:08;2.86;71.17
73688;SHT30;62257;48.376;-4.378;2022-12-16T02:04:34;2.84;71.21
73688;SHT30;62257;48.376;-4.378;2022-12-16T02:07:00;2.84;71.20
73688;SHT30;62257;48.376;-4.378;2022-12-16T02:09:26;2.80;71.02
73688;SHT30;62257;48.376;-4.378;2022-12-16T02:15:21;2.77;71.10
73688;SHT30;62257;48.376;-4.378;2022-12-16T02:18:17;2.76;71.18
73688;SHT30;62257;48.376;-4.378;2022-12-16T02:32:04;2.84;71.28
73688;SHT30;62257;48.376;-4.378;2022-12-16T02:37:29;2.90;71.55
73688;SHT30;62257;48.376;-4.378;2022-12-16T02:40:20;2.94;71.51
73688;SHT30;62257;48.376;-4.378;2022-12-16T02:42:51;2.97;71.62
73688;SHT30;62257;48.376;-4.378;2022-12-16T02:45:22;3.01;71.65
73688;SHT30;62257;48.376;-4.378;2022-12-16T02:47:49;3.01;71.56
73688;SHT30;62257;48.376;-4.378;2022-12-16T02:50:25;3.05;71.69
73688;SHT30;62257;48.376;-4.378;2022-12-16T02:52:53;3.05;71.93
73688;SHT30;62257;48.376;-4.378;2022-12-16T02:55:22;3.08;71.81
73688;SHT30;62257;48.376;-4.378;2022-12-16T03:00:20;3.11;72.20
73688;SHT30;62257;48.376;-4.378;2022-12-16T03:03:11;3.11;72.10
73688;SHT30;62257;48.376;-4.378;2022-12-16T03:05:44;3.11;72.22
73688;SHT30;62257;48.376;-4.378;2022-12-16T03:08:17;3.10;72.55
73688;SHT30;62257;48.376;-4.378;2022-12-16T03:10:48;3.08;72.33
73688;SHT30;62257;48.376;-4.378;2022-12-16T03:13:17;3.08;72.83
73688;SHT30;62257;48.376;-4.378;2022-12-16T03:15:46;3.10;72.59
73688;SHT30;62257;48.376;-4.378;2022-12-16T03:18:14;3.14;72.53
73688;SHT30;62257;48.376;-4.378;2022-12-16T03:20:54;3.21;72.50
73688;SHT30;62257;48.376;-4.378;2022-12-16T03:23:30;3.24;72.32
73688;SHT30;62257;48.376;-4.378;2022-12-16T03:26:02;3.32;72.24
73688;SHT30;62257;48.376;-4.378;2022-12-16T03:28:47;3.35;72.28
73688;SHT30;62257;48.376;-4.378;2022-12-16T03:31:39;3.39;72.27
73688;SHT30;62257;48.376;-4.378;2022-12-16T03:37:06;3.39;72.14
73688;SHT30;62257;48.376;-4.378;2022-12-16T03:39:34;3.35;72.36
73688;SHT30;62257;48.376;-4.378;2022-12-16T03:42:01;3.35;72.45
73688;SHT30;62257;48.376;-4.378;2022-12-16T03:44:27;3.32;72.79
73688;SHT30;62257;48.376;-4.378;2022-12-16T03:46:53;3.30;72.71
73688;SHT30;62257;48.376;-4.378;2022-12-16T03:49:20;3.27;72.92
73688;SHT30;62257;48.376;-4.378;2022-12-16T03:51:46;3.27;73.10
73688;SHT30;62257;48.376;-4.378;2022-12-16T03:54:12;3.25;73.32
73688;SHT30;62257;48.376;-4.378;2022-12-16T03:56:37;3.27;73.12
73688;SHT30;62257;48.376;-4.378;2022-12-16T03:59:02;3.31;73.18
73688;SHT30;62257;48.376;-4.378;2022-12-16T04:01:28;3.34;73.07
73688;SHT30;62257;48.376;-4.378;2022-12-16T04:03:53;3.38;73.02
73688;SHT30;62257;48.376;-4.378;2022-12-16T04:06:19;3.38;72.92
73688;SHT30;62257;48.376;-4.378;2022-12-16T04:08:45;3.41;72.91
73688;SHT30;62257;48.376;-4.378;2022-12-16T04:11:13;3.42;72.87
73688;SHT30;62257;48.376;-4.378;2022-12-16T04:13:58;3.41;72.98
73688;SHT30;62257;48.376;-4.378;2022-12-16T04:16:43;3.43;72.85
73688;SHT30;62257;48.376;-4.378;2022-12-16T04:19:33;3.42;72.84
73688;SHT30;62257;48.376;-4.378;2022-12-16T04:22:48;3.39;72.64
73688;SHT30;62257;48.376;-4.378;2022-12-16T04:25:33;3.43;72.71
73688;SHT30;62257;48.376;-4.378;2022-12-16T04:28:01;3.46;72.50
73688;SHT30;62257;48.376;-4.378;2022-12-16T04:30:28;3.49;72.38
73688;SHT30;62257;48.376;-4.378;2022-12-16T04:33:00;3.52;72.32
73688;SHT30;62257;48.376;-4.378;2022-12-16T04:35:45;3.55;72.27
73688;SHT30;62257;48.376;-4.378;2022-12-16T04:38:29;3.58;72.06
73688;SHT30;62257;48.376;-4.378;2022-12-16T04:41:13;3.62;72.04
73688;SHT30;62257;48.376;-4.378;2022-12-16T04:43:57;3.62;72.05
73688;SHT30;62257;48.376;-4.378;2022-12-16T04:46:41;3.62;72.00
73688;SHT30;62257;48.376;-4.378;2022-12-16T04:49:25;3.65;71.91
73688;SHT30;62257;48.376;-4.378;2022-12-16T04:52:09;3.68;71.89
73688;SHT30;62257;48.376;-4.378;2022-12-16T04:54:53;3.68;71.76
73688;SHT30;62257;48.376;-4.378;2022-12-16T04:57:38;3.69;71.65
73688;SHT30;62257;48.376;-4.378;2022-12-16T05:00:33;3.75;71.69
73688;SHT30;62257;48.376;-4.378;2022-12-16T05:03:17;3.82;71.50
73688;SHT30;62257;48.376;-4.378;2022-12-16T05:06:01;3.89;71.38
73688;SHT30;62257;48.376;-4.378;2022-12-16T05:08:45;3.93;71.43
73688;SHT30;62257;48.376;-4.378;2022-12-16T05:11:29;3.94;71.29
73688;SHT30;62257;48.376;-4.378;2022-12-16T05:14:13;3.94;71.28
73688;SHT30;62257;48.376;-4.378;2022-12-16T05:16:57;3.97;71.28
73688;SHT30;62257;48.376;-4.378;2022-12-16T05:19:41;3.97;71.29
73688;SHT30;62257;48.376;-4.378;2022-12-16T05:22:25;4.00;71.14
73688;SHT30;62257;48.376;-4.378;2022-12-16T05:25:09;4.04;71.12
73688;SHT30;62257;48.376;-4.378;2022-12-16T05:27:53;4.06;71.13
73688;SHT30;62257;48.376;-4.378;2022-12-16T05:30:37;4.13;71.16
73688;SHT30;62257;48.376;-4.378;2022-12-16T05:33:21;4.14;71.26
73688;SHT30;62257;48.376;-4.378;2022-12-16T05:36:06;4.06;71.14
73688;SHT30;62257;48.376;-4.378;2022-12-16T05:38:51;3.98;71.26
73688;SHT30;62257;48.376;-4.378;2022-12-16T05:41:35;4.00;71.57
73688;SHT30;62257;48.376;-4.378;2022-12-16T05:44:19;3.94;71.45
73688;SHT30;62257;48.376;-4.378;2022-12-16T05:47:03;3.93;71.68
73688;SHT30;62257;48.376;-4.378;2022-12-16T05:49:47;3.89;71.61
73688;SHT30;62257;48.376;-4.378;2022-12-16T05:52:31;3.85;71.80
73688;SHT30;62257;48.376;-4.378;2022-12-16T05:55:15;3.78;71.98
73688;SHT30;62257;48.376;-4.378;2022-12-16T05:57:58;3.69;72.70
73688;SHT30;62257;48.376;-4.378;2022-12-16T06:00:47;3.62;72.49
73688;SHT30;62257;48.376;-4.378;2022-12-16T06:03:31;3.56;72.71
73688;SHT30;62257;48.376;-4.378;2022-12-16T06:06:15;3.54;72.75
73688;SHT30;62257;48.376;-4.378;2022-12-16T06:08:59;3.52;72.83
73688;SHT30;62257;48.376;-4.378;2022-12-16T06:11:43;3.51;72.81
73688;SHT30;62257;48.376;-4.378;2022-12-16T06:14:27;3.58;72.98
73688;SHT30;62257;48.376;-4.378;2022-12-16T06:17:11;3.60;72.71
73688;SHT30;62257;48.376;-4.378;2022-12-16T06:19:56;3.65;72.55
73688;SHT30;62257;48.376;-4.378;2022-12-16T06:22:40;3.68;72.48
73688;SHT30;62257;48.376;-4.378;2022-12-16T06:25:24;3.66;72.35
73688;SHT30;62257;48.376;-4.378;2022-12-16T06:28:08;3.62;72.57
73688;SHT30;62257;48.376;-4.378;2022-12-16T06:30:52;3.58;72.42
73688;SHT30;62257;48.376;-4.378;2022-12-16T06:33:37;3.62;72.38
73688;SHT30;62257;48.376;-4.378;2022-12-16T06:36:21;3.66;72.32
73688;SHT30;62257;48.376;-4.378;2022-12-16T06:39:05;3.75;72.00
73688;SHT30;62257;48.376;-4.378;2022-12-16T06:41:49;3.89;71.67
73688;SHT30;62257;48.376;-4.378;2022-12-16T06:44:33;4.00;71.26
73688;SHT30;62257;48.376;-4.378;2022-12-16T06:47:28;4.14;70.91
73688;SHT30;62257;48.376;-4.378;2022-12-16T06:50:12;4.17;71.11
73688;SHT30;62257;48.376;-4.378;2022-12-16T06:52:55;4.27;70.91
73688;SHT30;62257;48.376;-4.378;2022-12-16T06:55:39;4.34;70.63
73688;SHT30;62257;48.376;-4.378;2022-12-16T06:58:23;4.37;70.54
73688;SHT30;62257;48.376;-4.378;2022-12-16T07:01:07;4.37;70.67
73688;SHT30;62257;48.376;-4.378;2022-12-16T07:03:51;4.35;70.63
73688;SHT30;62257;48.376;-4.378;2022-12-16T07:06:35;4.30;70.68
73688;SHT30;62257;48.376;-4.378;2022-12-16T07:09:19;4.25;70.77
73688;SHT30;62257;48.376;-4.378;2022-12-16T07:12:03;4.24;71.08
73688;SHT30;62257;48.376;-4.378;2022-12-16T07:14:47;4.21;71.02
73688;SHT30;62257;48.376;-4.378;2022-12-16T07:17:31;4.22;70.98
73688;SHT30;62257;48.376;-4.378;2022-12-16T07:20:15;4.25;70.85
73688;SHT30;62257;48.376;-4.378;2022-12-16T07:22:59;4.31;70.77
73688;SHT30;62257;48.376;-4.378;2022-12-16T07:25:43;4.38;70.73
73688;SHT30;62257;48.376;-4.378;2022-12-16T07:28:27;4.41;70.67
73688;SHT30;62257;48.376;-4.378;2022-12-16T07:31:11;4.45;70.55
73688;SHT30;62257;48.376;-4.378;2022-12-16T07:33:55;4.46;70.68
73688;SHT30;62257;48.376;-4.378;2022-12-16T07:36:39;4.45;70.87
73688;SHT30;62257;48.376;-4.378;2022-12-16T07:39:23;4.41;71.17
73688;SHT30;62257;48.376;-4.378;2022-12-16T07:42:07;4.35;71.33
73688;SHT30;62257;48.376;-4.378;2022-12-16T07:44:51;4.33;71.55
73688;SHT30;62257;48.376;-4.378;2022-12-16T07:47:35;4.31;71.80
73688;SHT30;62257;48.376;-4.378;2022-12-16T07:50:19;4.30;71.93
73688;SHT30;62257;48.376;-4.378;2022-12-16T07:53:03;4.25;71.55
73688;SHT30;62257;48.376;-4.378;2022-12-16T07:55:47;4.25;71.43
73688;SHT30;62257;48.376;-4.378;2022-12-16T07:58:31;4.31;71.43
73688;SHT30;62257;48.376;-4.378;2022-12-16T08:01:15;4.35;71.35
73688;SHT30;62257;48.376;-4.378;2022-12-16T08:03:59;4.37;71.47
73688;SHT30;62257;48.376;-4.378;2022-12-16T08:06:43;4.37;71.65
73688;SHT30;62257;48.376;-4.378;2022-12-16T08:09:27;4.33;71.72
73688;SHT30;62257;48.376;-4.378;2022-12-16T08:12:11;4.31;71.76
73688;SHT30;62257;48.376;-4.378;2022-12-16T08:14:55;4.31;71.85
73688;SHT30;62257;48.376;-4.378;2022-12-16T08:17:50;4.30;72.00
73688;SHT30;62257;48.376;-4.378;2022-12-16T08:20:34;4.30;71.94
73688;SHT30;62257;48.376;-4.378;2022-12-16T08:23:18;4.30;72.09
73688;SHT30;62257;48.376;-4.378;2022-12-16T08:26:02;4.30;72.18
73688;SHT30;62257;48.376;-4.378;2022-12-16T08:28:47;4.27;72.53
73688;SHT30;62257;48.376;-4.378;2022-12-16T08:31:31;4.25;72.48
73688;SHT30;62257;48.376;-4.378;2022-12-16T08:34:15;4.22;71.99
73688;SHT30;62257;48.376;-4.378;2022-12-16T08:36:59;4.24;72.06
73688;SHT30;62257;48.376;-4.378;2022-12-16T08:39:43;4.25;71.86
73688;SHT30;62257;48.376;-4.378;2022-12-16T08:42:28;4.27;72.13
73688;SHT30;62257;48.376;-4.378;2022-12-16T08:45:12;4.30;71.49
73688;SHT30;62257;48.376;-4.378;2022-12-16T08:47:56;4.30;71.75
73688;SHT30;62257;48.376;-4.378;2022-12-16T08:50:40;4.33;71.27
73688;SHT30;62257;48.376;-4.378;2022-12-16T08:53:24;4.35;71.31
73688;SHT30;62257;48.376;-4.378;2022-12-16T08:56:08;4.38;71.83
73688;SHT30;62257;48.376;-4.378;2022-12-16T08:58:51;4.42;71.12
73688;SHT30;62257;48.376;-4.378;2022-12-16T09:01:35;4.51;70.89
73688;SHT30;62257;48.376;-4.378;2022-12-16T09:04:19;4.58;71.16
73688;SHT30;62257;48.376;-4.378;2022-12-16T09:07:03;4.61;71.26
73688;SHT30;62257;48.376;-4.378;2022-12-16T09:09:47;4.65;70.95
73688;SHT30;62257;48.376;-4.378;2022-12-16T09:12:31;4.66;70.52
73688;SHT30;62257;48.376;-4.378;2022-12-16T09:15:15;4.72;70.93
73688;SHT30;62257;48.376;-4.378;2022-12-16T09:17:59;4.77;71.23
73688;SHT30;62257;48.376;-4.378;2022-12-16T09:20:43;4.75;71.20
73688;SHT30;62257;48.376;-4.378;2022-12-16T09:23:27;4.83;71.35
73688;SHT30;62257;48.376;-4.378;2022-12-16T09:26:11;4.94;71.38
73688;SHT30;62257;48.376;-4.378;2022-12-16T09:28:55;5.17;71.28
73688;SHT30;62257;48.376;-4.378;2022-12-16T09:31:39;5.39;70.73
73688;SHT30;62257;48.376;-4.378;2022-12-16T09:34:23;5.65;70.35
73688;SHT30;62257;48.376;-4.378;2022-12-16T09:37:07;5.93;69.59
73688;SHT30;62257;48.376;-4.378;2022-12-16T09:39:51;6.09;69.24
73688;SHT30;62257;48.376;-4.378;2022-12-16T09:45:36;6.00;69.27
73688;SHT30;62257;48.376;-4.378;2022-12-16T09:51:17;5.86;68.83
73688;SHT30;62257;48.376;-4.378;2022-12-16T09:54:02;5.83;69.11
73688;SHT30;62257;48.376;-4.378;2022-12-16T09:56:47;5.82;69.38
73688;SHT30;62257;48.376;-4.378;2022-12-16T09:59:37;5.75;68.89
73688;SHT30;62257;48.376;-4.378;2022-12-16T10:02:24;5.80;68.98
73688;SHT30;62257;48.376;-4.378;2022-12-16T10:05:13;5.79;68.19
73688;SHT30;62257;48.376;-4.378;2022-12-16T10:08:26;5.83;68.40
73688;SHT30;62257;48.376;-4.378;2022-12-16T10:14:30;5.89;68.31
73688;SHT30;62257;48.376;-4.378;2022-12-16T10:17:21;5.95;68.34
73688;SHT30;62257;48.376;-4.378;2022-12-16T10:26:16;6.02;67.66
73688;SHT30;62257;48.376;-4.378;2022-12-16T10:29:22;6.06;66.35
73688;SHT30;62257;48.376;-4.378;2022-12-16T10:32:19;6.07;65.70
73688;SHT30;62257;48.376;-4.378;2022-12-16T10:41:18;6.11;65.26
73688;SHT30;62257;48.376;-4.378;2022-12-16T10:44:06;6.17;65.48
73688;SHT30;62257;48.376;-4.378;2022-12-16T10:46:55;6.20;66.56
73688;SHT30;62257;48.376;-4.378;2022-12-16T10:49:39;6.21;65.40
73688;SHT30;62257;48.376;-4.378;2022-12-16T10:52:23;6.25;66.15
73688;SHT30;62257;48.376;-4.378;2022-12-16T11:00:42;6.31;65.20
73688;SHT30;62257;48.376;-4.378;2022-12-16T11:03:31;6.34;65.49
73688;SHT30;62257;48.376;-4.378;2022-12-16T11:09:32;6.35;65.22
73688;SHT30;62257;48.376;-4.378;2022-12-16T11:12:22;6.35;65.27
73688;SHT30;62257;48.376;-4.378;2022-12-16T11:15:27;6.37;65.64
73688;SHT30;62257;48.376;-4.378;2022-12-16T11:18:15;6.41;66.19
73688;SHT30;62257;48.376;-4.378;2022-12-16T11:21:12;6.41;66.00
73688;SHT30;62257;48.376;-4.378;2022-12-16T11:24:18;6.46;66.26
73688;SHT30;62257;48.376;-4.378;2022-12-16T11:30:14;6.46;66.83
73688;SHT30;62257;48.376;-4.378;2022-12-16T11:32:59;6.49;66.31
73688;SHT30;62257;48.376;-4.378;2022-12-16T11:35:51;6.49;67.11
73688;SHT30;62257;48.376;-4.378;2022-12-16T11:38:40;6.51;66.62
73688;SHT30;62257;48.376;-4.378;2022-12-16T11:41:29;6.52;67.15
73688;SHT30;62257;48.376;-4.378;2022-12-16T11:44:21;6.55;67.54
73688;SHT30;62257;48.376;-4.378;2022-12-16T11:47:18;6.56;66.68
73688;SHT30;62257;48.376;-4.378;2022-12-16T11:50:08;6.61;67.11
73688;SHT30;62257;48.376;-4.378;2022-12-16T11:52:55;6.61;66.85
73688;SHT30;62257;48.376;-4.378;2022-12-16T11:55:42;6.64;66.64
73688;SHT30;62257;48.376;-4.378;2022-12-16T11:58:46;6.68;66.85
73688;SHT30;62257;48.376;-4.378;2022-12-16T12:01:51;6.71;67.23
73688;SHT30;62257;48.376;-4.378;2022-12-16T12:04:43;6.78;66.52
73688;SHT30;62257;48.376;-4.378;2022-12-16T12:07:43;6.79;66.97
73688;SHT30;62257;48.376;-4.378;2022-12-16T12:10:46;6.75;67.16
73688;SHT30;62257;48.376;-4.378;2022-12-16T12:13:55;6.78;66.73
73688;SHT30;62257;48.376;-4.378;2022-12-16T12:23:05;6.82;68.81
73688;SHT30;62257;48.376;-4.378;2022-12-16T12:26:06;6.83;67.91
73688;SHT30;62257;48.376;-4.378;2022-12-16T12:32:14;6.85;66.13
73688;SHT30;62257;48.376;-4.378;2022-12-16T12:38:08;6.89;67.19
73688;SHT30;62257;48.376;-4.378;2022-12-16T12:47:31;6.95;64.77
73688;SHT30;62257;48.376;-4.378;2022-12-16T12:50:30;6.96;65.84
73688;SHT30;62257;48.376;-4.378;2022-12-16T12:53:28;6.97;65.96
73688;SHT30;62257;48.376;-4.378;2022-12-16T12:56:40;7.00;63.70
73688;SHT30;62257;48.376;-4.378;2022-12-16T12:59:31;7.00;62.96
73688;SHT30;62257;48.376;-4.378;2022-12-16T13:02:21;7.09;63.98
73688;SHT30;62257;48.376;-4.378;2022-12-16T13:05:11;7.09;63.74
73688;SHT30;62257;48.376;-4.378;2022-12-16T13:11:15;7.14;64.79
73688;SHT30;62257;48.376;-4.378;2022-12-16T13:13:59;7.17;65.27
73688;SHT30;62257;48.376;-4.378;2022-12-16T13:22:29;7.21;68.06
73688;SHT30;62257;48.376;-4.378;2022-12-16T13:25:32;7.24;67.88
73688;SHT30;62257;48.376;-4.378;2022-12-16T13:28:46;7.21;68.12
73688;SHT30;62257;48.376;-4.378;2022-12-16T13:31:29;7.20;66.18
73688;SHT30;62257;48.376;-4.378;2022-12-16T13:36:57;7.13;67.19
73688;SHT30;62257;48.376;-4.378;2022-12-16T13:39:43;7.09;66.42
73688;SHT30;62257;48.376;-4.378;2022-12-16T13:42:55;7.01;68.76
73688;SHT30;62257;48.376;-4.378;2022-12-16T13:45:42;6.96;68.79
73688;SHT30;62257;48.376;-4.378;2022-12-16T13:48:28;6.93;68.74
73688;SHT30;62257;48.376;-4.378;2022-12-16T13:54:16;6.93;68.48
73688;SHT30;62257;48.376;-4.378;2022-12-16T13:57:00;6.96;68.18
73688;SHT30;62257;48.376;-4.378;2022-12-16T13:59:47;6.97;69.00
73688;SHT30;62257;48.376;-4.378;2022-12-16T14:02:37;7.00;67.71
73688;SHT30;62257;48.376;-4.378;2022-12-16T14:05:26;7.06;68.58
73688;SHT30;62257;48.376;-4.378;2022-12-16T14:08:12;7.03;67.98
73688;SHT30;62257;48.376;-4.378;2022-12-16T14:11:02;6.99;68.35
73688;SHT30;62257;48.376;-4.378;2022-12-16T14:17:01;6.78;69.32
73688;SHT30;62257;48.376;-4.378;2022-12-16T14:20:30;6.73;68.57
73688;SHT30;62257;48.376;-4.378;2022-12-16T14:26:22;6.61;69.21
73688;SHT30;62257;48.376;-4.378;2022-12-16T14:29:20;6.56;69.32
73688;SHT30;62257;48.376;-4.378;2022-12-16T14:32:27;6.52;70.01
73688;SHT30;62257;48.376;-4.378;2022-12-16T14:35:17;6.56;66.48
73688;SHT30;62257;48.376;-4.378;2022-12-16T14:38:31;6.61;67.45
73688;SHT30;62257;48.376;-4.378;2022-12-16T14:41:23;6.62;68.31
73688;SHT30;62257;48.376;-4.378;2022-12-16T14:44:22;6.58;68.20
73688;SHT30;62257;48.376;-4.378;2022-12-16T14:47:18;6.55;66.19
73688;SHT30;62257;48.376;-4.378;2022-12-16T14:50:03;6.55;66.57
73688;SHT30;62257;48.376;-4.378;2022-12-16T14:53:11;6.52;67.71
73688;SHT30;62257;48.376;-4.378;2022-12-16T14:56:08;6.48;67.71
73688;SHT30;62257;48.376;-4.378;2022-12-16T14:59:12;6.48;68.06
73688;SHT30;62257;48.376;-4.378;2022-12-16T15:01:59;6.48;67.32
73688;SHT30;62257;48.376;-4.378;2022-12-16T15:04:45;6.45;68.19
73688;SHT30;62257;48.376;-4.378;2022-12-16T15:07:34;6.40;68.88
73688;SHT30;62257;48.376;-4.378;2022-12-16T15:10:23;6.37;68.61
73688;SHT30;62257;48.376;-4.378;2022-12-16T15:13:17;6.34;68.83
73688;SHT30;62257;48.376;-4.378;2022-12-16T15:16:02;6.31;69.09
73688;SHT30;62257;48.376;-4.378;2022-12-16T15:18:56;6.27;69.12
73688;SHT30;62257;48.376;-4.378;2022-12-16T15:21:41;6.24;68.37
73688;SHT30;62257;48.376;-4.378;2022-12-16T15:24:34;6.21;68.44
73688;SHT30;62257;48.376;-4.378;2022-12-16T15:27:34;6.18;67.56
73688;SHT30;62257;48.376;-4.378;2022-12-16T15:33:27;6.21;66.19
73688;SHT30;62257;48.376;-4.378;2022-12-16T15:36:27;6.20;65.77
73688;SHT30;62257;48.376;-4.378;2022-12-16T15:42:24;6.25;66.31
73688;SHT30;62257;48.376;-4.378;2022-12-16T15:45:27;6.30;67.31
73688;SHT30;62257;48.376;-4.378;2022-12-16T15:51:00;6.35;66.44
73688;SHT30;62257;48.376;-4.378;2022-12-16T15:53:44;6.38;66.90
73688;SHT30;62257;48.376;-4.378;2022-12-16T15:56:44;6.40;65.43
73688;SHT30;62257;48.376;-4.378;2022-12-16T15:59:34;6.40;66.69
73688;SHT30;62257;48.376;-4.378;2022-12-16T16:02:26;6.41;66.69
73688;SHT30;62257;48.376;-4.378;2022-12-16T16:07:54;6.30;66.23
73688;SHT30;62257;48.376;-4.378;2022-12-16T16:10:41;6.25;67.50
73688;SHT30;62257;48.376;-4.378;2022-12-16T16:13:25;6.14;68.30
73688;SHT30;62257;48.376;-4.378;2022-12-16T16:16:09;6.03;68.84
73688;SHT30;62257;48.376;-4.378;2022-12-16T16:18:54;5.93;68.42
73688;SHT30;62257;48.376;-4.378;2022-12-16T16:21:38;5.83;69.52
73688;SHT30;62257;48.376;-4.378;2022-12-16T16:24:22;5.75;69.46
73688;SHT30;62257;48.376;-4.378;2022-12-16T16:27:10;5.63;69.95
73688;SHT30;62257;48.376;-4.378;2022-12-16T16:29:56;5.54;70.31
73688;SHT30;62257;48.376;-4.378;2022-12-16T16:32:40;5.44;70.25
73688;SHT30;62257;48.376;-4.378;2022-12-16T16:35:24;5.34;71.13
73688;SHT30;62257;48.376;-4.378;2022-12-16T16:38:11;5.23;71.53
73688;SHT30;62257;48.376;-4.378;2022-12-16T16:40:56;5.11;71.56
73688;SHT30;62257;48.376;-4.378;2022-12-16T16:43:40;5.06;71.65
73688;SHT30;62257;48.376;-4.378;2022-12-16T16:46:36;4.97;71.69
73688;SHT30;62257;48.376;-4.378;2022-12-16T16:49:29;4.90;72.07
73688;SHT30;62257;48.376;-4.378;2022-12-16T16:52:15;4.84;72.22
73688;SHT30;62257;48.376;-4.378;2022-12-16T16:54:59;4.76;72.59
73688;SHT30;62257;48.376;-4.378;2022-12-16T16:57:43;4.68;73.12
73688;SHT30;62257;48.376;-4.378;2022-12-16T17:00:28;4.56;73.49
73688;SHT30;62257;48.376;-4.378;2022-12-16T17:03:12;4.51;73.63
73688;SHT30;62257;48.376;-4.378;2022-12-16T17:05:56;4.45;74.00
73688;SHT30;62257;48.376;-4.378;2022-12-16T17:08:40;4.40;74.29
73688;SHT30;62257;48.376;-4.378;2022-12-16T17:11:24;4.33;74.45
73688;SHT30;62257;48.376;-4.378;2022-12-16T17:14:11;4.25;74.73
73688;SHT30;62257;48.376;-4.378;2022-12-16T17:16:55;4.20;74.91
73688;SHT30;62257;48.376;-4.378;2022-12-16T17:19:40;4.14;75.00
73688;SHT30;62257;48.376;-4.378;2022-12-16T17:22:23;4.14;74.05
73688;SHT30;62257;48.376;-4.378;2022-12-16T17:25:08;4.13;74.66
73688;SHT30;62257;48.376;-4.378;2022-12-16T17:27:51;4.14;73.72
73688;SHT30;62257;48.376;-4.378;2022-12-16T17:30:40;4.18;72.83
73688;SHT30;62257;48.376;-4.378;2022-12-16T17:33:24;4.25;72.80
73688;SHT30;62257;48.376;-4.378;2022-12-16T17:36:13;4.34;72.48
73688;SHT30;62257;48.376;-4.378;2022-12-16T17:38:57;4.42;72.23
73688;SHT30;62257;48.376;-4.378;2022-12-16T17:41:41;4.45;72.18
73688;SHT30;62257;48.376;-4.378;2022-12-16T17:44:25;4.49;71.98
73688;SHT30;62257;48.376;-4.378;2022-12-16T17:47:09;4.51;71.82
73688;SHT30;62257;48.376;-4.378;2022-12-16T17:49:53;4.51;72.20
73688;SHT30;62257;48.376;-4.378;2022-12-16T17:52:37;4.52;71.76
73688;SHT30;62257;48.376;-4.378;2022-12-16T17:55:22;4.56;71.58
73688;SHT30;62257;48.376;-4.378;2022-12-16T17:58:06;4.56;71.54
73688;SHT30;62257;48.376;-4.378;2022-12-16T18:00:50;4.56;72.21
73688;SHT30;62257;48.376;-4.378;2022-12-16T18:03:34;4.51;71.97
73688;SHT30;62257;48.376;-4.378;2022-12-16T18:06:19;4.54;71.36
73688;SHT30;62257;48.376;-4.378;2022-12-16T18:09:03;4.59;71.29
73688;SHT30;62257;48.376;-4.378;2022-12-16T18:11:47;4.63;71.96
73688;SHT30;62257;48.376;-4.378;2022-12-16T18:14:31;4.62;72.02
73688;SHT30;62257;48.376;-4.378;2022-12-16T18:17:15;4.65;71.90
73688;SHT30;62257;48.376;-4.378;2022-12-16T18:19:59;4.65;72.05
73688;SHT30;62257;48.376;-4.378;2022-12-16T18:22:43;4.66;71.55
73688;SHT30;62257;48.376;-4.378;2022-12-16T18:25:27;4.69;71.75
73688;SHT30;62257;48.376;-4.378;2022-12-16T18:28:11;4.68;71.76
73688;SHT30;62257;48.376;-4.378;2022-12-16T18:30:55;4.69;71.78
73688;SHT30;62257;48.376;-4.378;2022-12-16T18:33:39;4.68;71.73
73688;SHT30;62257;48.376;-4.378;2022-12-16T18:36:23;4.69;71.64
73688;SHT30;62257;48.376;-4.378;2022-12-16T18:39:07;4.65;71.87
73688;SHT30;62257;48.376;-4.378;2022-12-16T18:41:51;4.66;71.13
73688;SHT30;62257;48.376;-4.378;2022-12-16T18:44:35;4.65;70.97
73688;SHT30;62257;48.376;-4.378;2022-12-16T18:47:19;4.65;71.49
73688;SHT30;62257;48.376;-4.378;2022-12-16T18:50:04;4.61;71.96
73688;SHT30;62257;48.376;-4.378;2022-12-16T18:52:48;4.54;72.16
73688;SHT30;62257;48.376;-4.378;2022-12-16T18:55:32;4.51;72.22
73688;SHT30;62257;48.376;-4.378;2022-12-16T18:58:16;4.45;72.50
73688;SHT30;62257;48.376;-4.378;2022-12-16T19:01:02;4.38;72.65